createdAt,value
2022-08-05T00:01:20.603Z,2.07
2022-08-05T00:04:17.501Z,2.80
2022-08-05T00:07:27.132Z,2.50
2022-08-05T00:10:16.609Z,2.10
2022-08-05T00:13:05.506Z,2.13
2022-08-05T00:16:00.204Z,2.17
2022-08-05T00:18:51.135Z,1.90
2022-08-05T00:21:47.304Z,2.43
2022-08-05T00:24:36.441Z,2.37
2022-08-05T00:27:36.217Z,2.27
2022-08-05T00:30:31.921Z,2.40
2022-08-05T00:34:54.816Z,1.93
2022-08-05T00:37:13.093Z,2.50
2022-08-05T00:39:43.942Z,2.20
2022-08-05T00:42:50.029Z,2.50
2022-08-05T00:45:43.580Z,2.03
2022-08-05T00:48:34.687Z,2.40
2022-08-05T00:51:50.713Z,2.50
2022-08-05T00:54:41.032Z,1.80
2022-08-05T00:57:55.274Z,2.63
2022-08-05T01:00:42.875Z,2.20
2022-08-05T01:03:34.907Z,2.87
2022-08-05T01:06:32.442Z,2.00
2022-08-05T01:09:21.812Z,2.60
2022-08-05T01:12:17.987Z,2.73
2022-08-05T01:15:35.458Z,2.20
2022-08-05T01:18:24.494Z,2.30
2022-08-05T01:21:25.719Z,2.13
2022-08-05T01:24:50.961Z,2.70
2022-08-05T01:27:57.501Z,2.50
2022-08-05T01:30:53.897Z,3.03
2022-08-05T01:33:49.298Z,2.47
2022-08-05T01:37:00.830Z,2.33
2022-08-05T01:39:51.535Z,2.20
2022-08-05T01:42:45.377Z,2.20
2022-08-05T01:45:42.812Z,2.20
2022-08-05T01:48:36.680Z,2.00
2022-08-05T01:51:25.927Z,2.30
2022-08-05T01:54:25.583Z,2.83
2022-08-05T01:58:18.757Z,2.60
2022-08-05T02:00:29.871Z,2.33
2022-08-05T02:03:31.823Z,2.00
2022-08-05T02:06:33.829Z,3.40
2022-08-05T02:09:27.259Z,2.33
2022-08-05T02:12:20.299Z,2.37
2022-08-05T02:15:12.468Z,2.60
2022-08-05T02:18:32.485Z,2.73
2022-08-05T02:21:15.567Z,2.40
2022-08-05T02:24:07.821Z,2.90
2022-08-05T02:27:00.376Z,3.00
2022-08-05T02:30:00.875Z,2.53
2022-08-05T02:32:52.024Z,2.90
2022-08-05T02:35:44.957Z,3.90
2022-08-05T02:38:53.356Z,3.50
2022-08-05T02:42:00.739Z,3.13
2022-08-05T02:44:51.781Z,3.67
2022-08-05T02:48:09.947Z,3.53
2022-08-05T02:50:52.351Z,3.50
2022-08-05T02:53:42.607Z,3.50
2022-08-05T02:56:32.037Z,2.97
2022-08-05T02:59:27.149Z,3.97
2022-08-05T03:02:17.049Z,3.00
2022-08-05T03:05:09.362Z,4.03
2022-08-05T03:08:06.884Z,3.17
2022-08-05T03:11:01.312Z,3.43
2022-08-05T03:14:08.027Z,3.30
2022-08-05T03:16:59.097Z,3.47
2022-08-05T03:19:48.086Z,3.70
2022-08-05T03:22:38.667Z,3.90
2022-08-05T03:26:04.561Z,4.13
2022-08-05T03:28:46.014Z,6.33
2022-08-05T03:31:55.729Z,4.30
2022-08-05T03:34:49.571Z,4.87
2022-08-05T03:37:45.693Z,5.17
2022-08-05T03:40:35.933Z,4.90
2022-08-05T03:44:08.368Z,5.27
2022-08-05T03:46:35.575Z,4.70
2022-08-05T03:49:31.122Z,4.90
2022-08-05T03:54:59.334Z,5.43
2022-08-05T03:56:03.680Z,5.83
2022-08-05T03:58:57.659Z,4.93
2022-08-05T04:01:49.203Z,6.07
2022-08-05T04:04:39.525Z,5.50
2022-08-05T04:07:35.923Z,8.13
2022-08-05T04:10:45.666Z,7.90
2022-08-05T04:13:50.320Z,6.60
2022-08-05T04:16:40.673Z,8.67
2022-08-05T04:19:30.510Z,7.57
2022-08-05T04:22:20.435Z,7.30
2022-08-05T04:25:12.230Z,7.90
2022-08-05T04:28:11.079Z,9.23
2022-08-05T04:31:02.195Z,9.40
2022-08-05T04:34:31.401Z,7.47
2022-08-05T04:37:06.657Z,11.83
2022-08-05T04:39:55.796Z,8.23
2022-08-05T04:42:46.283Z,8.80
2022-08-05T04:45:49.032Z,8.83
2022-08-05T04:48:44.038Z,7.80
2022-08-05T04:51:34.899Z,7.37
2022-08-05T04:54:27.227Z,8.47
2022-08-05T04:57:17.196Z,8.60
2022-08-05T05:00:10.513Z,8.97
2022-08-05T05:03:04.397Z,8.43
2022-08-05T05:06:38.943Z,8.13
2022-08-05T05:09:02.263Z,8.63
2022-08-05T05:11:59.051Z,8.40
2022-08-05T05:14:51.371Z,7.73
2022-08-05T05:17:55.597Z,8.10
2022-08-05T05:20:46.618Z,9.20
2022-08-05T05:24:01.902Z,8.33
2022-08-05T05:26:50.043Z,9.30
2022-08-05T05:30:04.038Z,9.10
2022-08-05T05:32:51.492Z,9.60
2022-08-05T05:35:42.518Z,10.40
2022-08-05T05:38:32.238Z,10.07
2022-08-05T05:41:21.261Z,11.13
2022-08-05T05:44:35.793Z,10.10
2022-08-05T05:47:21.505Z,11.53
2022-08-05T05:50:16.322Z,10.53
2022-08-05T05:53:21.569Z,11.63
2022-08-05T05:56:11.884Z,9.80
2022-08-05T05:59:03.532Z,9.60
2022-08-05T06:01:57.593Z,12.10
2022-08-05T06:04:49.317Z,11.97
2022-08-05T06:07:41.716Z,11.40
2022-08-05T06:10:36.277Z,9.90
2022-08-05T06:13:26.928Z,9.60
2022-08-05T06:16:29.066Z,10.80
2022-08-05T06:19:34.112Z,10.60
2022-08-05T06:22:24.828Z,10.47
2022-08-05T06:25:25.068Z,57.77
2022-08-05T06:28:24.460Z,12.80
2022-08-05T06:31:18.030Z,10.33
2022-08-05T06:34:08.893Z,11.33
2022-08-05T06:36:58.696Z,10.60
2022-08-05T06:39:47.917Z,10.57
2022-08-05T06:42:39.903Z,10.77
2022-08-05T06:45:44.413Z,9.73
2022-08-05T06:48:56.339Z,11.87
2022-08-05T06:51:47.019Z,10.37
2022-08-05T06:54:38.680Z,10.90
2022-08-05T06:57:58.180Z,10.90
2022-08-05T07:00:39.462Z,9.93
2022-08-05T07:03:32.798Z,10.67
2022-08-05T07:06:23.230Z,11.07
2022-08-05T07:09:12.172Z,12.13
2022-08-05T07:12:02.817Z,10.20
2022-08-05T07:15:09.246Z,9.90
2022-08-05T07:18:05.634Z,8.50
2022-08-05T07:21:04.698Z,8.23
2022-08-05T07:23:54.580Z,8.43
2022-08-05T07:26:44.105Z,8.13
2022-08-05T07:30:22.871Z,8.60
2022-08-05T07:32:46.095Z,7.93
2022-08-05T07:36:03.319Z,7.53
2022-08-05T07:38:54.934Z,8.00
2022-08-05T07:42:07.861Z,7.10
2022-08-05T07:44:53.011Z,8.20
2022-08-05T07:47:42.686Z,7.40
2022-08-05T07:50:32.565Z,7.00
2022-08-05T07:53:23.811Z,6.73
2022-08-05T07:57:02.477Z,6.87
2022-08-05T07:59:40.236Z,5.40
2022-08-05T08:03:13.378Z,5.93
2022-08-05T08:05:41.853Z,4.70
2022-08-05T08:08:34.889Z,5.20
2022-08-05T08:11:27.613Z,5.20
2022-08-05T08:14:33.137Z,7.47
2022-08-05T08:17:22.916Z,5.47
2022-08-05T08:20:43.360Z,5.13
2022-08-05T08:24:01.069Z,4.87
2022-08-05T08:26:32.005Z,5.50
2022-08-05T08:30:03.157Z,5.47
2022-08-05T08:32:30.098Z,4.63
2022-08-05T08:35:21.619Z,5.93
2022-08-05T08:38:16.718Z,4.60
2022-08-05T08:41:20.960Z,5.20
2022-08-05T08:45:18.465Z,4.77
2022-08-05T08:48:07.680Z,4.40
2022-08-05T08:51:22.997Z,5.07
2022-08-05T08:53:46.386Z,4.00
2022-08-05T08:56:35.546Z,4.83
2022-08-05T08:59:37.753Z,4.30
2022-08-05T09:02:28.523Z,4.20
2022-08-05T09:05:18.446Z,4.50
2022-08-05T09:08:40.101Z,3.43
2022-08-05T09:11:52.590Z,4.47
2022-08-05T09:14:58.095Z,4.50
2022-08-05T09:17:49.923Z,3.77
2022-08-05T09:20:44.277Z,3.90
2022-08-05T09:23:37.494Z,3.60
2022-08-05T09:26:32.689Z,3.70
2022-08-05T09:29:21.745Z,3.73
2022-08-05T09:32:42.047Z,3.10
2022-08-05T09:35:30.243Z,3.33
2022-08-05T09:38:29.362Z,3.23
2022-08-05T09:41:18.613Z,4.00
2022-08-05T09:44:08.146Z,3.20
2022-08-05T09:47:10.456Z,4.33
2022-08-05T09:50:04.475Z,3.63
2022-08-05T09:52:59.292Z,4.27
2022-08-05T09:55:56.108Z,3.40
2022-08-05T09:58:57.520Z,3.20
2022-08-05T10:01:47.997Z,2.93
2022-08-05T10:04:48.394Z,2.97
2022-08-05T10:08:10.459Z,3.53
2022-08-05T10:10:59.261Z,2.87
2022-08-05T10:13:55.096Z,4.40
2022-08-05T10:16:52.743Z,3.70
2022-08-05T10:20:03.738Z,3.87
2022-08-05T10:23:00.631Z,3.87
2022-08-05T10:25:49.745Z,3.50
2022-08-05T10:28:38.679Z,2.80
2022-08-05T10:33:02.201Z,3.43
2022-08-05T10:34:40.957Z,3.40
2022-08-05T10:37:37.277Z,3.30
2022-08-05T10:40:36.216Z,3.13
2022-08-05T10:43:44.581Z,2.30
2022-08-05T10:46:45.007Z,3.30
2022-08-05T10:49:48.803Z,2.40
2022-08-05T10:52:49.615Z,2.70
2022-08-05T10:56:05.324Z,3.37
2022-08-05T10:59:12.520Z,3.33
2022-08-05T11:02:34.996Z,2.40
2022-08-05T11:05:29.327Z,2.10
2022-08-05T11:08:36.854Z,2.13
2022-08-05T11:11:44.821Z,2.20
2022-08-05T11:15:01.373Z,2.10
2022-08-05T11:17:57.253Z,2.60
2022-08-05T11:20:56.865Z,2.23
2022-08-05T11:24:04.527Z,2.30
2022-08-05T11:27:27.026Z,2.00
2022-08-05T11:30:58.454Z,1.70
2022-08-05T11:33:54.958Z,1.93
2022-08-05T11:36:46.982Z,1.77
2022-08-05T11:40:00.359Z,2.00
2022-08-05T11:42:52.264Z,2.17
2022-08-05T11:46:15.386Z,1.90
2022-08-05T11:49:04.937Z,1.83
2022-08-05T11:51:54.275Z,1.70
2022-08-05T11:54:48.417Z,1.60
2022-08-05T11:58:10.760Z,1.77
2022-08-05T12:01:04.520Z,2.03
2022-08-05T12:03:58.129Z,1.80
2022-08-05T12:06:48.868Z,1.70
2022-08-05T12:09:53.576Z,2.08
2022-08-05T12:12:58.505Z,1.95
2022-08-05T12:15:51.396Z,1.75
2022-08-05T12:18:52.338Z,2.00
2022-08-05T12:21:46.784Z,2.08
2022-08-05T12:24:49.593Z,2.10
2022-08-05T12:27:53.013Z,1.88
2022-08-05T12:30:45.822Z,2.45
2022-08-05T12:33:36.749Z,2.15
2022-08-05T12:36:32.524Z,2.20
2022-08-05T12:39:21.667Z,1.77
2022-08-05T12:42:15.284Z,2.33
2022-08-05T12:45:09.463Z,1.80
2022-08-05T12:48:01.764Z,2.50
2022-08-05T12:52:10.192Z,2.30
2022-08-05T12:54:23.457Z,1.95
2022-08-05T12:57:15.648Z,2.10
2022-08-05T13:01:57.930Z,2.47
2022-08-05T13:03:15.449Z,2.53
2022-08-05T13:06:04.528Z,2.15
2022-08-05T13:08:53.481Z,2.95
2022-08-05T13:12:01.631Z,2.78
2022-08-05T13:15:05.602Z,3.40
2022-08-05T13:17:56.556Z,2.33
2022-08-05T13:20:51.198Z,2.30
2022-08-05T13:23:50.578Z,2.70
2022-08-05T13:26:45.047Z,2.73
2022-08-05T13:30:32.335Z,2.50
2022-08-05T13:32:51.677Z,1.92
2022-08-05T13:35:47.033Z,2.17
2022-08-05T13:38:42.814Z,2.25
2022-08-05T13:41:35.900Z,2.45
2022-08-05T13:44:26.867Z,2.00
2022-08-05T13:48:08.255Z,1.85
2022-08-05T13:50:28.197Z,1.70
2022-08-05T13:53:17.848Z,1.95
2022-08-05T13:56:18.029Z,2.00
2022-08-05T13:59:19.608Z,2.00
2022-08-05T14:02:11.894Z,1.95
2022-08-05T14:05:15.278Z,1.83
2022-08-05T14:08:20.842Z,1.90
2022-08-05T14:11:20.264Z,1.70
2022-08-05T14:14:10.179Z,1.97
2022-08-05T14:17:01.465Z,1.80
2022-08-05T14:19:55.938Z,1.50
2022-08-05T14:22:50.236Z,1.53
2022-08-05T14:25:43.580Z,1.83
2022-08-05T14:28:36.307Z,1.80
2022-08-05T14:32:03.832Z,2.30
2022-08-05T14:34:50.093Z,1.80
2022-08-05T14:37:45.600Z,1.57
2022-08-05T14:40:40.315Z,1.70
2022-08-05T14:43:59.570Z,1.67
2022-08-05T14:46:42.104Z,1.87
2022-08-05T14:49:56.465Z,2.40
2022-08-05T14:52:52.583Z,1.30
2022-08-05T14:55:44.096Z,1.70
2022-08-05T14:58:47.817Z,1.53
2022-08-05T15:01:48.487Z,1.47
2022-08-05T15:04:38.381Z,1.60
2022-08-05T15:08:04.535Z,1.60
2022-08-05T15:10:36.828Z,1.80
2022-08-05T15:13:44.848Z,1.57
2022-08-05T15:16:35.353Z,1.40
2022-08-05T15:19:24.860Z,1.30
2022-08-05T15:22:15.781Z,1.20
2022-08-05T15:25:13.777Z,1.03
2022-08-05T15:28:04.051Z,2.93
2022-08-05T15:30:54.347Z,0.70
2022-08-05T15:34:19.482Z,0.60
2022-08-05T15:36:52.662Z,0.80
2022-08-05T15:41:03.884Z,0.80
2022-08-05T15:42:57.587Z,0.73
2022-08-05T15:46:00.755Z,1.00
2022-08-05T15:49:00.810Z,1.10
2022-08-05T15:52:10.019Z,1.10
2022-08-05T15:55:03.639Z,0.88
2022-08-05T15:57:52.701Z,0.60
2022-08-05T16:01:03.476Z,0.80
2022-08-05T16:03:52.742Z,0.80
2022-08-05T16:06:42.113Z,0.77
2022-08-05T16:09:32.167Z,0.77
2022-08-05T16:12:21.609Z,0.53
2022-08-05T16:15:10.934Z,0.93
2022-08-05T16:18:09.109Z,0.90
2022-08-05T16:21:01.207Z,0.67
2022-08-05T16:23:55.453Z,0.70
2022-08-05T16:26:54.096Z,0.80
2022-08-05T16:29:47.502Z,0.70
2022-08-05T16:32:40.099Z,0.70
2022-08-05T16:35:42.501Z,0.87
2022-08-05T16:38:35.199Z,0.70
2022-08-05T16:42:12.856Z,0.60
2022-08-05T16:44:33.514Z,0.90
2022-08-05T16:47:28.620Z,0.70
2022-08-05T16:50:25.688Z,0.63
2022-08-05T16:53:23.003Z,0.60
2022-08-05T16:56:23.437Z,0.60
2022-08-05T16:59:15.657Z,0.80
2022-08-05T17:02:04.851Z,0.70
2022-08-05T17:04:54.262Z,0.80
2022-08-05T17:07:54.524Z,0.80
2022-08-05T17:10:44.344Z,0.70
2022-08-05T17:13:37.200Z,1.00
2022-08-05T17:16:33.106Z,0.60
2022-08-05T17:19:22.865Z,0.80
2022-08-05T17:22:24.942Z,0.80
2022-08-05T17:25:22.183Z,0.60
2022-08-05T17:28:23.227Z,0.60
2022-08-05T17:31:24.100Z,0.60
2022-08-05T17:34:17.986Z,0.70
2022-08-05T17:37:27.314Z,0.60
2022-08-05T17:40:17.767Z,0.60
2022-08-05T17:43:07.846Z,1.00
2022-08-05T17:45:59.352Z,1.10
2022-08-05T17:48:50.385Z,0.73
2022-08-05T17:51:41.243Z,0.80
2022-08-05T17:54:31.605Z,0.90
2022-08-05T17:57:20.804Z,0.83
2022-08-05T18:00:11.685Z,0.73
2022-08-05T18:03:03.179Z,0.80
2022-08-05T18:06:01.968Z,0.87
2022-08-05T18:08:52.327Z,0.70
2022-08-05T18:11:41.978Z,0.60
2022-08-05T18:14:31.102Z,0.90
2022-08-05T18:18:01.167Z,0.80
2022-08-05T18:20:31.565Z,1.10
2022-08-05T18:23:22.937Z,0.73
2022-08-05T18:26:19.495Z,0.73
2022-08-05T18:29:10.367Z,0.80
2022-08-05T18:31:59.492Z,0.80
2022-08-05T18:34:48.506Z,0.80
2022-08-05T18:37:41.168Z,0.90
2022-08-05T18:41:53.333Z,0.70
2022-08-05T18:43:42.927Z,1.00
2022-08-05T18:46:37.387Z,0.80
2022-08-05T18:49:58.357Z,0.77
2022-08-05T18:52:51.465Z,0.73
2022-08-05T18:55:42.171Z,0.70
2022-08-05T18:58:31.122Z,0.90
2022-08-05T19:01:47.166Z,1.33
2022-08-05T19:04:34.050Z,0.80
2022-08-05T19:07:46.402Z,1.00
2022-08-05T19:10:38.190Z,1.47
2022-08-05T19:13:29.310Z,1.40
2022-08-05T19:16:30.168Z,0.90
2022-08-05T19:19:25.949Z,1.00
2022-08-05T19:22:17.222Z,0.97
2022-08-05T19:25:06.912Z,1.10
2022-08-05T19:27:57.192Z,0.90
2022-08-05T19:30:48.972Z,0.80
2022-08-05T19:33:40.630Z,1.00
2022-08-05T19:36:38.339Z,1.20
2022-08-05T19:39:28.335Z,0.80
2022-08-05T19:42:17.509Z,0.80
2022-08-05T19:45:07.278Z,1.20
2022-08-05T19:47:57.531Z,1.33
2022-08-05T19:50:46.734Z,0.80
2022-08-05T19:54:04.466Z,1.10
2022-08-05T19:56:44.733Z,1.10
2022-08-05T19:59:55.339Z,0.87
2022-08-05T20:02:44.060Z,1.33
2022-08-05T20:05:50.050Z,0.90
2022-08-05T20:08:39.609Z,1.33
2022-08-05T20:11:37.716Z,1.00
2022-08-05T20:14:27.330Z,1.30
2022-08-05T20:17:16.371Z,1.00
2022-08-05T20:20:09.522Z,1.23
2022-08-05T20:23:04.045Z,1.20
2022-08-05T20:25:54.350Z,0.97
2022-08-05T20:28:44.110Z,1.10
2022-08-05T20:31:42.954Z,1.20
2022-08-05T20:34:42.702Z,1.30
2022-08-05T20:38:05.759Z,1.10
2022-08-05T20:40:43.244Z,1.10
2022-08-05T20:43:58.258Z,1.17
2022-08-05T20:46:41.241Z,1.00
2022-08-05T20:49:37.888Z,1.30
2022-08-05T20:52:28.658Z,1.10
2022-08-05T20:56:07.349Z,1.47
2022-08-05T20:58:28.151Z,1.47
2022-08-05T21:01:18.215Z,1.30
2022-08-05T21:04:15.433Z,1.13
2022-08-05T21:07:04.661Z,0.90
2022-08-05T21:09:54.318Z,1.30
2022-08-05T21:12:57.594Z,1.57
2022-08-05T21:15:51.016Z,1.23
2022-08-05T21:18:45.168Z,1.90
2022-08-05T21:21:44.533Z,1.17
2022-08-05T21:24:39.777Z,1.20
2022-08-05T21:27:38.932Z,1.23
2022-08-05T21:30:28.154Z,2.03
2022-08-05T21:33:22.325Z,8.70
2022-08-05T21:36:12.743Z,4.43
2022-08-05T21:39:08.207Z,1.77
2022-08-05T21:42:01.202Z,1.60
2022-08-05T21:44:51.372Z,1.40
2022-08-05T21:47:55.716Z,1.33
2022-08-05T21:50:53.030Z,1.37
2022-08-05T21:53:43.332Z,1.20
2022-08-05T21:56:53.362Z,1.10
2022-08-05T22:00:06.949Z,1.47
2022-08-05T22:03:00.574Z,1.27
2022-08-05T22:05:50.781Z,1.50
2022-08-05T22:08:42.579Z,1.43
2022-08-05T22:11:35.023Z,1.50
2022-08-05T22:14:35.393Z,1.40
2022-08-05T22:17:27.350Z,1.37
2022-08-05T22:20:17.334Z,1.53
2022-08-05T22:24:03.227Z,1.60
2022-08-05T22:26:52.630Z,1.73
2022-08-05T22:29:41.932Z,1.40
2022-08-05T22:32:33.461Z,1.03
2022-08-05T22:35:22.360Z,1.33
2022-08-05T22:38:13.659Z,1.40
2022-08-05T22:41:09.577Z,1.40
2022-08-05T22:43:59.323Z,1.43
2022-08-05T22:46:48.229Z,1.60
2022-08-05T22:50:18.504Z,1.87
2022-08-05T22:52:46.252Z,1.47
2022-08-05T22:55:37.105Z,1.33
2022-08-05T22:58:45.429Z,1.53
2022-08-05T23:02:04.060Z,1.13
2022-08-05T23:04:43.577Z,1.83
2022-08-05T23:07:48.558Z,1.50
2022-08-05T23:10:41.627Z,2.17
2022-08-05T23:13:31.238Z,1.90
2022-08-05T23:16:43.972Z,2.00
2022-08-05T23:19:38.529Z,1.80
2022-08-05T23:22:35.792Z,1.70
2022-08-05T23:25:51.089Z,1.50
2022-08-05T23:28:35.781Z,1.87
2022-08-05T23:31:25.715Z,2.40
2022-08-05T23:34:24.647Z,1.90
2022-08-05T23:37:13.771Z,1.90
2022-08-05T23:40:07.621Z,1.83
2022-08-05T23:42:58.632Z,1.70
2022-08-05T23:45:49.078Z,1.83
2022-08-05T23:48:37.936Z,1.70
2022-08-05T23:51:27.541Z,1.47
2022-08-05T23:54:18.026Z,1.70
2022-08-05T23:57:15.394Z,2.00
